createdAt,value
2023-05-14T19:43:54.273Z,20.07
2023-05-14T19:46:21.643Z,20.06
2023-05-14T19:48:50.526Z,20.02
2023-05-14T19:51:17.333Z,19.97
2023-05-14T19:53:44.159Z,19.90
2023-05-14T19:56:11.051Z,19.84
2023-05-14T19:58:37.961Z,19.78
2023-05-14T20:01:04.803Z,19.72
2023-05-14T20:03:33.616Z,19.66
2023-05-14T20:06:03.598Z,19.62
2023-05-14T20:08:30.416Z,19.57
2023-05-14T20:10:57.721Z,19.52
2023-05-14T20:13:25.480Z,19.48
2023-05-14T20:15:52.322Z,19.43
2023-05-14T20:18:19.200Z,19.38
2023-05-14T20:20:46.002Z,19.34
2023-05-14T20:23:13.287Z,19.30
2023-05-14T20:25:40.126Z,19.27
2023-05-14T20:28:07.013Z,19.24
2023-05-14T20:30:33.887Z,19.20
2023-05-14T20:33:00.755Z,19.16
2023-05-14T20:35:27.719Z,19.10
2023-05-14T20:37:54.606Z,19.07
2023-05-14T20:40:21.586Z,19.05
2023-05-14T20:42:50.433Z,19.03
2023-05-14T20:45:17.508Z,18.99
2023-05-14T20:47:44.690Z,18.93
2023-05-14T20:50:14.850Z,18.88
2023-05-14T20:52:41.632Z,18.82
2023-05-14T20:55:09.099Z,18.77
2023-05-14T20:57:36.918Z,18.73
2023-05-14T21:00:08.131Z,18.68
2023-05-14T21:02:35.102Z,18.63
2023-05-14T21:05:02.396Z,18.57
2023-05-14T21:07:30.544Z,18.50
2023-05-14T21:09:57.293Z,18.45
2023-05-14T21:12:24.258Z,18.41
2023-05-14T21:14:53.437Z,18.38
2023-05-14T21:17:20.302Z,18.35
2023-05-14T21:19:47.193Z,18.32
2023-05-14T21:22:14.331Z,18.27
2023-05-14T21:24:43.282Z,18.22
2023-05-14T21:27:10.506Z,18.18
2023-05-14T21:29:39.717Z,18.12
2023-05-14T21:32:07.054Z,18.07
2023-05-14T21:34:33.953Z,18.01
2023-05-14T21:37:00.819Z,17.97
2023-05-14T21:39:28.850Z,17.92
2023-05-14T21:41:55.821Z,17.86
2023-05-14T21:44:22.764Z,17.81
2023-05-14T21:46:51.097Z,17.76
2023-05-14T21:49:20.867Z,17.71
2023-05-14T21:51:53.248Z,17.68
2023-05-14T21:54:20.917Z,17.66
2023-05-14T21:56:47.935Z,17.64
2023-05-14T21:59:14.703Z,17.63
2023-05-14T22:02:00.627Z,17.61
2023-05-14T22:04:28.474Z,17.61
2023-05-14T22:06:55.206Z,17.62
2023-05-14T22:09:22.055Z,17.64
2023-05-14T22:11:49.005Z,17.66
2023-05-14T22:14:15.780Z,17.69
2023-05-14T22:16:42.610Z,17.72
2023-05-14T22:19:09.600Z,17.73
2023-05-14T22:21:36.441Z,17.75
2023-05-14T22:24:03.222Z,17.74
2023-05-14T22:26:30.195Z,17.74
2023-05-14T22:28:57.714Z,17.73
2023-05-14T22:31:24.504Z,17.72
2023-05-14T22:33:52.182Z,17.73
2023-05-14T22:36:18.919Z,17.73
2023-05-14T22:38:45.722Z,17.72
2023-05-14T22:41:12.561Z,17.73
2023-05-14T22:43:39.304Z,17.73
2023-05-14T22:46:06.395Z,17.72
2023-05-14T22:48:33.241Z,17.71
2023-05-14T22:51:00.051Z,17.70
2023-05-14T22:53:26.881Z,17.68
2023-05-14T22:55:53.737Z,17.67
2023-05-14T22:58:21.607Z,17.65
2023-05-14T23:00:48.311Z,17.64
2023-05-14T23:03:15.238Z,17.61
2023-05-14T23:05:42.344Z,17.59
2023-05-14T23:08:09.536Z,17.57
2023-05-14T23:10:36.386Z,17.53
2023-05-14T23:13:03.751Z,17.48
2023-05-14T23:15:30.767Z,17.45
2023-05-14T23:17:57.714Z,17.42
2023-05-14T23:20:24.786Z,17.39
2023-05-14T23:22:52.522Z,17.36
2023-05-14T23:25:19.853Z,17.31
2023-05-14T23:27:46.750Z,17.26
2023-05-14T23:30:13.688Z,17.22
2023-05-14T23:32:40.645Z,17.17
2023-05-14T23:35:08.371Z,17.12
2023-05-14T23:37:41.600Z,17.06
2023-05-14T23:40:10.392Z,17.02
2023-05-14T23:42:37.188Z,16.96
2023-05-14T23:45:04.672Z,16.92
2023-05-14T23:47:31.504Z,16.89
2023-05-14T23:49:59.921Z,16.85
2023-05-14T23:52:26.712Z,16.81
2023-05-14T23:54:54.338Z,16.77
2023-05-14T23:57:21.127Z,16.73
2023-05-14T23:59:47.900Z,16.68
